sensor_id;sensor_type;location;lat;lon;timestamp;P1;durP1;ratioP1;P2;durP2;ratioP2
20229;SDS011;12195;55.790;37.572;2022-09-21T00:00:02;22.37;;;10.18;;
20229;SDS011;12195;55.790;37.572;2022-09-21T00:02:35;25.77;;;10.77;;
20229;SDS011;12195;55.790;37.572;2022-09-21T00:05:07;17.15;;;10.18;;
20229;SDS011;12195;55.790;37.572;2022-09-21T00:07:39;19.35;;;10.38;;
20229;SDS011;12195;55.790;37.572;2022-09-21T00:10:11;22.13;;;10.98;;
20229;SDS011;12195;55.790;37.572;2022-09-21T00:12:43;19.90;;;10.30;;
20229;SDS011;12195;55.790;37.572;2022-09-21T00:15:17;17.95;;;10.32;;
20229;SDS011;12195;55.790;37.572;2022-09-21T00:17:51;18.10;;;10.70;;
20229;SDS011;12195;55.790;37.572;2022-09-21T00:20:23;21.77;;;9.95;;
20229;SDS011;12195;55.790;37.572;2022-09-21T00:22:56;17.90;;;10.60;;
20229;SDS011;12195;55.790;37.572;2022-09-21T00:25:28;24.32;;;10.90;;
20229;SDS011;12195;55.790;37.572;2022-09-21T00:28:00;22.45;;;10.58;;
20229;SDS011;12195;55.790;37.572;2022-09-21T00:30:32;22.75;;;11.05;;
20229;SDS011;12195;55.790;37.572;2022-09-21T00:33:04;19.60;;;10.55;;
20229;SDS011;12195;55.790;37.572;2022-09-21T00:35:36;19.07;;;9.88;;
20229;SDS011;12195;55.790;37.572;2022-09-21T00:38:09;24.80;;;9.68;;
20229;SDS011;12195;55.790;37.572;2022-09-21T00:40:41;18.73;;;10.25;;
20229;SDS011;12195;55.790;37.572;2022-09-21T00:43:14;24.55;;;10.13;;
20229;SDS011;12195;55.790;37.572;2022-09-21T00:45:47;22.13;;;10.18;;
20229;SDS011;12195;55.790;37.572;2022-09-21T00:48:22;18.77;;;10.50;;
20229;SDS011;12195;55.790;37.572;2022-09-21T00:50:55;24.82;;;10.50;;
20229;SDS011;12195;55.790;37.572;2022-09-21T00:53:30;18.35;;;9.65;;
20229;SDS011;12195;55.790;37.572;2022-09-21T00:56:02;22.20;;;9.98;;
20229;SDS011;12195;55.790;37.572;2022-09-21T00:58:37;20.35;;;9.88;;
20229;SDS011;12195;55.790;37.572;2022-09-21T01:01:11;24.92;;;10.68;;
20229;SDS011;12195;55.790;37.572;2022-09-21T01:03:48;18.55;;;11.43;;
20229;SDS011;12195;55.790;37.572;2022-09-21T01:06:22;19.77;;;10.68;;
20229;SDS011;12195;55.790;37.572;2022-09-21T01:08:54;24.43;;;10.58;;
20229;SDS011;12195;55.790;37.572;2022-09-21T01:17:15;19.35;;;10.00;;
20229;SDS011;12195;55.790;37.572;2022-09-21T01:29:06;29.72;;;9.45;;
20229;SDS011;12195;55.790;37.572;2022-09-21T01:31:39;22.73;;;10.03;;
20229;SDS011;12195;55.790;37.572;2022-09-21T01:34:19;23.80;;;9.58;;
20229;SDS011;12195;55.790;37.572;2022-09-21T01:36:54;21.93;;;10.25;;
20229;SDS011;12195;55.790;37.572;2022-09-21T01:39:28;17.42;;;9.60;;
20229;SDS011;12195;55.790;37.572;2022-09-21T01:42:02;19.10;;;10.57;;
20229;SDS011;12195;55.790;37.572;2022-09-21T01:44:37;18.23;;;9.80;;
20229;SDS011;12195;55.790;37.572;2022-09-21T01:47:10;26.70;;;9.90;;
20229;SDS011;12195;55.790;37.572;2022-09-21T01:54:54;20.60;;;9.70;;
20229;SDS011;12195;55.790;37.572;2022-09-21T02:00:03;17.17;;;8.25;;
20229;SDS011;12195;55.790;37.572;2022-09-21T02:02:54;18.15;;;8.80;;
20229;SDS011;12195;55.790;37.572;2022-09-21T02:05:27;16.77;;;7.65;;
20229;SDS011;12195;55.790;37.572;2022-09-21T02:08:01;14.73;;;8.13;;
20229;SDS011;12195;55.790;37.572;2022-09-21T02:10:41;15.18;;;8.50;;
20229;SDS011;12195;55.790;37.572;2022-09-21T02:13:21;21.65;;;8.53;;
20229;SDS011;12195;55.790;37.572;2022-09-21T02:21:45;13.88;;;9.03;;
20229;SDS011;12195;55.790;37.572;2022-09-21T02:27:22;14.10;;;8.03;;
20229;SDS011;12195;55.790;37.572;2022-09-21T02:32:45;20.02;;;8.90;;
20229;SDS011;12195;55.790;37.572;2022-09-21T02:35:23;16.93;;;8.50;;
20229;SDS011;12195;55.790;37.572;2022-09-21T02:40:50;19.17;;;8.80;;
20229;SDS011;12195;55.790;37.572;2022-09-21T02:46:01;18.77;;;8.60;;
20229;SDS011;12195;55.790;37.572;2022-09-21T02:48:39;16.67;;;8.25;;
20229;SDS011;12195;55.790;37.572;2022-09-21T02:51:15;15.32;;;8.35;;
20229;SDS011;12195;55.790;37.572;2022-09-21T02:53:48;17.67;;;8.25;;
20229;SDS011;12195;55.790;37.572;2022-09-21T02:56:23;16.87;;;8.48;;
20229;SDS011;12195;55.790;37.572;2022-09-21T02:58:58;17.40;;;9.08;;
20229;SDS011;12195;55.790;37.572;2022-09-21T03:01:31;18.73;;;9.73;;
20229;SDS011;12195;55.790;37.572;2022-09-21T03:04:04;24.92;;;10.20;;
20229;SDS011;12195;55.790;37.572;2022-09-21T03:06:36;17.95;;;9.58;;
20229;SDS011;12195;55.790;37.572;2022-09-21T03:09:08;16.02;;;8.98;;
20229;SDS011;12195;55.790;37.572;2022-09-21T03:11:40;17.27;;;9.13;;
20229;SDS011;12195;55.790;37.572;2022-09-21T03:14:12;26.00;;;9.43;;
20229;SDS011;12195;55.790;37.572;2022-09-21T03:16:45;29.90;;;10.78;;
20229;SDS011;12195;55.790;37.572;2022-09-21T03:19:17;28.30;;;11.10;;
20229;SDS011;12195;55.790;37.572;2022-09-21T03:21:50;29.98;;;12.82;;
20229;SDS011;12195;55.790;37.572;2022-09-21T03:24:23;25.05;;;11.60;;
20229;SDS011;12195;55.790;37.572;2022-09-21T03:27:13;29.72;;;10.68;;
20229;SDS011;12195;55.790;37.572;2022-09-21T03:32:18;25.20;;;10.63;;
20229;SDS011;12195;55.790;37.572;2022-09-21T03:34:50;23.52;;;10.48;;
20229;SDS011;12195;55.790;37.572;2022-09-21T03:37:23;35.90;;;11.45;;
20229;SDS011;12195;55.790;37.572;2022-09-21T03:39:55;24.25;;;9.95;;
20229;SDS011;12195;55.790;37.572;2022-09-21T03:42:29;45.60;;;11.12;;
20229;SDS011;12195;55.790;37.572;2022-09-21T03:45:02;15.30;;;7.97;;
20229;SDS011;12195;55.790;37.572;2022-09-21T03:47:34;32.88;;;10.98;;
20229;SDS011;12195;55.790;37.572;2022-09-21T03:50:07;21.12;;;8.10;;
20229;SDS011;12195;55.790;37.572;2022-09-21T03:52:40;15.10;;;6.90;;
20229;SDS011;12195;55.790;37.572;2022-09-21T03:55:12;15.00;;;7.22;;
20229;SDS011;12195;55.790;37.572;2022-09-21T03:57:44;16.82;;;8.03;;
20229;SDS011;12195;55.790;37.572;2022-09-21T04:00:17;16.57;;;7.90;;
20229;SDS011;12195;55.790;37.572;2022-09-21T04:02:50;20.25;;;7.50;;
20229;SDS011;12195;55.790;37.572;2022-09-21T04:05:22;13.88;;;7.50;;
20229;SDS011;12195;55.790;37.572;2022-09-21T04:07:54;11.43;;;6.37;;
20229;SDS011;12195;55.790;37.572;2022-09-21T04:10:26;12.50;;;7.22;;
20229;SDS011;12195;55.790;37.572;2022-09-21T04:13:00;10.47;;;6.30;;
20229;SDS011;12195;55.790;37.572;2022-09-21T04:15:33;8.75;;;5.67;;
20229;SDS011;12195;55.790;37.572;2022-09-21T04:18:05;16.48;;;6.92;;
20229;SDS011;12195;55.790;37.572;2022-09-21T04:20:37;17.25;;;7.00;;
20229;SDS011;12195;55.790;37.572;2022-09-21T04:23:10;13.35;;;6.42;;
20229;SDS011;12195;55.790;37.572;2022-09-21T04:25:42;12.60;;;6.55;;
20229;SDS011;12195;55.790;37.572;2022-09-21T04:28:15;11.97;;;6.70;;
20229;SDS011;12195;55.790;37.572;2022-09-21T04:30:51;12.78;;;6.60;;
20229;SDS011;12195;55.790;37.572;2022-09-21T04:33:25;17.80;;;7.05;;
20229;SDS011;12195;55.790;37.572;2022-09-21T04:35:57;14.38;;;6.58;;
20229;SDS011;12195;55.790;37.572;2022-09-21T04:38:30;16.60;;;7.45;;
20229;SDS011;12195;55.790;37.572;2022-09-21T04:41:02;19.48;;;9.28;;
20229;SDS011;12195;55.790;37.572;2022-09-21T04:43:34;20.35;;;8.50;;
20229;SDS011;12195;55.790;37.572;2022-09-21T04:46:07;17.60;;;8.08;;
20229;SDS011;12195;55.790;37.572;2022-09-21T04:48:41;19.55;;;7.80;;
20229;SDS011;12195;55.790;37.572;2022-09-21T04:51:14;15.93;;;6.95;;
20229;SDS011;12195;55.790;37.572;2022-09-21T04:53:46;16.45;;;7.78;;
20229;SDS011;12195;55.790;37.572;2022-09-21T04:56:19;14.40;;;7.17;;
20229;SDS011;12195;55.790;37.572;2022-09-21T04:58:51;14.98;;;6.85;;
20229;SDS011;12195;55.790;37.572;2022-09-21T05:01:23;19.92;;;6.90;;
20229;SDS011;12195;55.790;37.572;2022-09-21T05:03:57;14.18;;;7.00;;
20229;SDS011;12195;55.790;37.572;2022-09-21T05:06:31;17.73;;;6.93;;
20229;SDS011;12195;55.790;37.572;2022-09-21T05:09:03;17.12;;;6.72;;
20229;SDS011;12195;55.790;37.572;2022-09-21T05:11:53;15.50;;;6.75;;
20229;SDS011;12195;55.790;37.572;2022-09-21T05:14:25;14.63;;;6.62;;
20229;SDS011;12195;55.790;37.572;2022-09-21T05:16:58;17.52;;;7.80;;
20229;SDS011;12195;55.790;37.572;2022-09-21T05:19:30;15.93;;;7.37;;
20229;SDS011;12195;55.790;37.572;2022-09-21T05:22:02;16.77;;;6.60;;
20229;SDS011;12195;55.790;37.572;2022-09-21T05:24:34;15.53;;;6.58;;
20229;SDS011;12195;55.790;37.572;2022-09-21T05:27:09;9.90;;;5.83;;
20229;SDS011;12195;55.790;37.572;2022-09-21T05:29:42;14.80;;;5.58;;
20229;SDS011;12195;55.790;37.572;2022-09-21T05:32:23;11.70;;;5.90;;
20229;SDS011;12195;55.790;37.572;2022-09-21T05:37:58;14.10;;;6.03;;
20229;SDS011;12195;55.790;37.572;2022-09-21T05:40:34;9.90;;;5.60;;
20229;SDS011;12195;55.790;37.572;2022-09-21T05:43:07;10.50;;;5.50;;
20229;SDS011;12195;55.790;37.572;2022-09-21T05:45:42;18.37;;;7.33;;
20229;SDS011;12195;55.790;37.572;2022-09-21T05:48:17;11.90;;;5.08;;
20229;SDS011;12195;55.790;37.572;2022-09-21T05:51:02;17.87;;;5.90;;
20229;SDS011;12195;55.790;37.572;2022-09-21T05:53:47;12.82;;;5.50;;
20229;SDS011;12195;55.790;37.572;2022-09-21T05:56:28;43.25;;;8.55;;
20229;SDS011;12195;55.790;37.572;2022-09-21T06:02:06;10.90;;;4.97;;
20229;SDS011;12195;55.790;37.572;2022-09-21T06:04:55;10.70;;;5.97;;
20229;SDS011;12195;55.790;37.572;2022-09-21T06:07:30;204.65;;;35.80;;
20229;SDS011;12195;55.790;37.572;2022-09-21T06:10:03;18.85;;;6.45;;
20229;SDS011;12195;55.790;37.572;2022-09-21T06:12:36;8.53;;;4.90;;
20229;SDS011;12195;55.790;37.572;2022-09-21T06:15:10;18.57;;;6.20;;
20229;SDS011;12195;55.790;37.572;2022-09-21T06:17:44;19.65;;;7.28;;
20229;SDS011;12195;55.790;37.572;2022-09-21T06:20:16;24.77;;;5.95;;
20229;SDS011;12195;55.790;37.572;2022-09-21T06:22:48;11.08;;;5.20;;
20229;SDS011;12195;55.790;37.572;2022-09-21T06:25:20;12.53;;;5.33;;
20229;SDS011;12195;55.790;37.572;2022-09-21T06:27:52;18.02;;;6.22;;
20229;SDS011;12195;55.790;37.572;2022-09-21T06:30:24;16.95;;;5.22;;
20229;SDS011;12195;55.790;37.572;2022-09-21T06:32:58;8.35;;;4.40;;
20229;SDS011;12195;55.790;37.572;2022-09-21T06:35:34;6.08;;;4.00;;
20229;SDS011;12195;55.790;37.572;2022-09-21T06:38:06;8.68;;;4.42;;
20229;SDS011;12195;55.790;37.572;2022-09-21T06:40:39;9.40;;;4.80;;
20229;SDS011;12195;55.790;37.572;2022-09-21T06:43:11;66.65;;;10.75;;
20229;SDS011;12195;55.790;37.572;2022-09-21T06:45:43;18.73;;;4.87;;
20229;SDS011;12195;55.790;37.572;2022-09-21T06:48:17;6.50;;;4.33;;
20229;SDS011;12195;55.790;37.572;2022-09-21T06:50:49;45.28;;;8.53;;
20229;SDS011;12195;55.790;37.572;2022-09-21T06:53:21;17.67;;;6.28;;
20229;SDS011;12195;55.790;37.572;2022-09-21T06:55:58;13.13;;;5.37;;
20229;SDS011;12195;55.790;37.572;2022-09-21T06:58:34;13.10;;;4.80;;
20229;SDS011;12195;55.790;37.572;2022-09-21T07:01:13;10.53;;;5.05;;
20229;SDS011;12195;55.790;37.572;2022-09-21T07:03:42;8.95;;;5.03;;
20229;SDS011;12195;55.790;37.572;2022-09-21T07:06:15;14.13;;;5.42;;
20229;SDS011;12195;55.790;37.572;2022-09-21T07:08:52;19.32;;;4.87;;
20229;SDS011;12195;55.790;37.572;2022-09-21T07:11:26;10.82;;;5.25;;
20229;SDS011;12195;55.790;37.572;2022-09-21T07:13:58;15.65;;;5.72;;
20229;SDS011;12195;55.790;37.572;2022-09-21T07:16:31;11.38;;;6.00;;
20229;SDS011;12195;55.790;37.572;2022-09-21T07:19:03;11.45;;;5.62;;
20229;SDS011;12195;55.790;37.572;2022-09-21T07:21:37;13.43;;;5.55;;
20229;SDS011;12195;55.790;37.572;2022-09-21T07:24:09;11.18;;;6.20;;
20229;SDS011;12195;55.790;37.572;2022-09-21T07:26:41;9.45;;;5.42;;
20229;SDS011;12195;55.790;37.572;2022-09-21T07:29:13;15.35;;;6.22;;
20229;SDS011;12195;55.790;37.572;2022-09-21T07:31:46;6.95;;;4.92;;
20229;SDS011;12195;55.790;37.572;2022-09-21T07:34:18;9.20;;;4.67;;
20229;SDS011;12195;55.790;37.572;2022-09-21T07:36:50;9.05;;;5.45;;
20229;SDS011;12195;55.790;37.572;2022-09-21T07:39:23;12.40;;;5.67;;
20229;SDS011;12195;55.790;37.572;2022-09-21T07:41:55;17.50;;;7.05;;
20229;SDS011;12195;55.790;37.572;2022-09-21T07:44:27;8.80;;;5.42;;
20229;SDS011;12195;55.790;37.572;2022-09-21T07:46:59;11.00;;;5.50;;
20229;SDS011;12195;55.790;37.572;2022-09-21T07:49:32;36.68;;;8.30;;
20229;SDS011;12195;55.790;37.572;2022-09-21T07:52:04;72.32;;;12.88;;
20229;SDS011;12195;55.790;37.572;2022-09-21T07:54:39;85.72;;;12.80;;
20229;SDS011;12195;55.790;37.572;2022-09-21T07:57:12;50.83;;;10.18;;
20229;SDS011;12195;55.790;37.572;2022-09-21T08:00:01;45.85;;;9.75;;
20229;SDS011;12195;55.790;37.572;2022-09-21T08:02:36;9.28;;;4.00;;
20229;SDS011;12195;55.790;37.572;2022-09-21T08:05:10;23.35;;;6.10;;
20229;SDS011;12195;55.790;37.572;2022-09-21T08:07:42;92.92;;;13.32;;
20229;SDS011;12195;55.790;37.572;2022-09-21T08:10:15;5.08;;;3.45;;
20229;SDS011;12195;55.790;37.572;2022-09-21T08:12:47;9.38;;;4.03;;
20229;SDS011;12195;55.790;37.572;2022-09-21T08:15:20;20.95;;;5.28;;
20229;SDS011;12195;55.790;37.572;2022-09-21T08:17:54;5.03;;;3.47;;
20229;SDS011;12195;55.790;37.572;2022-09-21T08:20:27;5.30;;;3.57;;
20229;SDS011;12195;55.790;37.572;2022-09-21T08:22:59;6.28;;;3.20;;
20229;SDS011;12195;55.790;37.572;2022-09-21T08:25:31;5.75;;;3.65;;
20229;SDS011;12195;55.790;37.572;2022-09-21T08:28:03;7.83;;;3.10;;
20229;SDS011;12195;55.790;37.572;2022-09-21T08:30:37;6.12;;;3.35;;
20229;SDS011;12195;55.790;37.572;2022-09-21T08:33:09;22.58;;;5.72;;
20229;SDS011;12195;55.790;37.572;2022-09-21T08:35:42;8.65;;;4.45;;
20229;SDS011;12195;55.790;37.572;2022-09-21T08:38:15;9.08;;;3.87;;
20229;SDS011;12195;55.790;37.572;2022-09-21T08:40:47;8.35;;;3.65;;
20229;SDS011;12195;55.790;37.572;2022-09-21T08:43:32;39.63;;;8.23;;
20229;SDS011;12195;55.790;37.572;2022-09-21T08:46:16;74.87;;;11.25;;
20229;SDS011;12195;55.790;37.572;2022-09-21T08:48:57;13.55;;;4.65;;
20229;SDS011;12195;55.790;37.572;2022-09-21T08:51:37;8.18;;;3.70;;
20229;SDS011;12195;55.790;37.572;2022-09-21T08:54:13;11.65;;;4.10;;
20229;SDS011;12195;55.790;37.572;2022-09-21T08:56:46;56.50;;;9.33;;
20229;SDS011;12195;55.790;37.572;2022-09-21T08:59:20;12.35;;;3.50;;
20229;SDS011;12195;55.790;37.572;2022-09-21T09:01:55;5.87;;;3.40;;
20229;SDS011;12195;55.790;37.572;2022-09-21T09:18:52;21.30;;;5.40;;
20229;SDS011;12195;55.790;37.572;2022-09-21T09:21:28;6.95;;;4.33;;
20229;SDS011;12195;55.790;37.572;2022-09-21T09:26:54;7.25;;;3.62;;
20229;SDS011;12195;55.790;37.572;2022-09-21T09:29:45;36.68;;;8.10;;
20229;SDS011;12195;55.790;37.572;2022-09-21T09:38:13;3.83;;;2.20;;
20229;SDS011;12195;55.790;37.572;2022-09-21T09:47:25;4.17;;;2.20;;
20229;SDS011;12195;55.790;37.572;2022-09-21T09:49:27;4.10;;;2.37;;
20229;SDS011;12195;55.790;37.572;2022-09-21T09:52:10;5.03;;;2.70;;
20229;SDS011;12195;55.790;37.572;2022-09-21T09:54:45;4.58;;;2.33;;
20229;SDS011;12195;55.790;37.572;2022-09-21T09:57:19;9.48;;;2.50;;
20229;SDS011;12195;55.790;37.572;2022-09-21T09:59:53;3.65;;;2.40;;
20229;SDS011;12195;55.790;37.572;2022-09-21T10:02:44;9.10;;;2.90;;
20229;SDS011;12195;55.790;37.572;2022-09-21T10:05:32;6.45;;;3.10;;
20229;SDS011;12195;55.790;37.572;2022-09-21T10:08:56;4.70;;;2.90;;
20229;SDS011;12195;55.790;37.572;2022-09-21T10:11:00;5.60;;;3.08;;
20229;SDS011;12195;55.790;37.572;2022-09-21T10:13:34;5.22;;;2.55;;
20229;SDS011;12195;55.790;37.572;2022-09-21T10:16:11;3.05;;;1.95;;
20229;SDS011;12195;55.790;37.572;2022-09-21T10:18:52;3.53;;;2.00;;
20229;SDS011;12195;55.790;37.572;2022-09-21T10:27:00;3.33;;;1.47;;
20229;SDS011;12195;55.790;37.572;2022-09-21T10:29:30;6.67;;;3.47;;
20229;SDS011;12195;55.790;37.572;2022-09-21T10:32:07;12.53;;;2.45;;
20229;SDS011;12195;55.790;37.572;2022-09-21T10:37:41;9.45;;;2.47;;
20229;SDS011;12195;55.790;37.572;2022-09-21T10:42:54;3.35;;;2.08;;
20229;SDS011;12195;55.790;37.572;2022-09-21T10:45:29;5.15;;;2.30;;
20229;SDS011;12195;55.790;37.572;2022-09-21T10:50:43;4.03;;;2.10;;
20229;SDS011;12195;55.790;37.572;2022-09-21T10:53:20;5.33;;;1.85;;
20229;SDS011;12195;55.790;37.572;2022-09-21T10:56:05;5.08;;;2.75;;
20229;SDS011;12195;55.790;37.572;2022-09-21T10:59:10;13.62;;;4.90;;
20229;SDS011;12195;55.790;37.572;2022-09-21T11:01:45;4.22;;;2.27;;
20229;SDS011;12195;55.790;37.572;2022-09-21T11:07:18;8.85;;;2.98;;
20229;SDS011;12195;55.790;37.572;2022-09-21T11:16:00;9.45;;;2.77;;
20229;SDS011;12195;55.790;37.572;2022-09-21T11:18:39;3.62;;;1.98;;
20229;SDS011;12195;55.790;37.572;2022-09-21T11:24:19;3.13;;;2.10;;
20229;SDS011;12195;55.790;37.572;2022-09-21T11:27:11;4.60;;;2.30;;
20229;SDS011;12195;55.790;37.572;2022-09-21T11:30:00;3.70;;;2.30;;
20229;SDS011;12195;55.790;37.572;2022-09-21T11:35:51;4.00;;;2.15;;
20229;SDS011;12195;55.790;37.572;2022-09-21T11:41:39;4.15;;;1.80;;
20229;SDS011;12195;55.790;37.572;2022-09-21T11:47:13;15.03;;;4.33;;
20229;SDS011;12195;55.790;37.572;2022-09-21T11:56:02;20.32;;;3.35;;
20229;SDS011;12195;55.790;37.572;2022-09-21T11:58:37;4.85;;;2.35;;
20229;SDS011;12195;55.790;37.572;2022-09-21T12:04:18;2.75;;;1.95;;
20229;SDS011;12195;55.790;37.572;2022-09-21T12:10:17;3.50;;;1.60;;
20229;SDS011;12195;55.790;37.572;2022-09-21T12:20:52;5.10;;;2.20;;
20229;SDS011;12195;55.790;37.572;2022-09-21T12:23:48;9.05;;;3.08;;
20229;SDS011;12195;55.790;37.572;2022-09-21T12:26:26;9.85;;;3.22;;
20229;SDS011;12195;55.790;37.572;2022-09-21T12:29:00;7.55;;;2.37;;
20229;SDS011;12195;55.790;37.572;2022-09-21T12:31:40;13.68;;;3.15;;
20229;SDS011;12195;55.790;37.572;2022-09-21T12:36:57;4.33;;;2.10;;
20229;SDS011;12195;55.790;37.572;2022-09-21T12:39:43;10.78;;;3.10;;
20229;SDS011;12195;55.790;37.572;2022-09-21T12:42:43;11.48;;;4.05;;
20229;SDS011;12195;55.790;37.572;2022-09-21T12:45:20;5.12;;;2.30;;
20229;SDS011;12195;55.790;37.572;2022-09-21T12:50:48;4.97;;;2.45;;
20229;SDS011;12195;55.790;37.572;2022-09-21T12:53:31;6.65;;;2.50;;
20229;SDS011;12195;55.790;37.572;2022-09-21T12:56:21;10.08;;;2.92;;
20229;SDS011;12195;55.790;37.572;2022-09-21T13:01:49;12.18;;;3.77;;
20229;SDS011;12195;55.790;37.572;2022-09-21T13:07:56;7.37;;;1.70;;
20229;SDS011;12195;55.790;37.572;2022-09-21T13:10:41;10.82;;;2.62;;
20229;SDS011;12195;55.790;37.572;2022-09-21T13:13:22;12.98;;;3.08;;
20229;SDS011;12195;55.790;37.572;2022-09-21T13:15:57;7.40;;;2.35;;
20229;SDS011;12195;55.790;37.572;2022-09-21T13:18:42;8.23;;;2.50;;
20229;SDS011;12195;55.790;37.572;2022-09-21T13:21:19;6.78;;;2.00;;
20229;SDS011;12195;55.790;37.572;2022-09-21T13:23:56;10.50;;;2.37;;
20229;SDS011;12195;55.790;37.572;2022-09-21T13:34:29;6.05;;;2.72;;
20229;SDS011;12195;55.790;37.572;2022-09-21T13:37:13;7.42;;;2.70;;
20229;SDS011;12195;55.790;37.572;2022-09-21T13:39:53;12.70;;;2.40;;
20229;SDS011;12195;55.790;37.572;2022-09-21T13:47:48;6.85;;;3.05;;
20229;SDS011;12195;55.790;37.572;2022-09-21T13:50:26;4.40;;;2.30;;
20229;SDS011;12195;55.790;37.572;2022-09-21T13:53:06;6.75;;;1.80;;
20229;SDS011;12195;55.790;37.572;2022-09-21T13:55:38;3.22;;;1.98;;
20229;SDS011;12195;55.790;37.572;2022-09-21T13:58:19;4.00;;;1.77;;
20229;SDS011;12195;55.790;37.572;2022-09-21T14:00:58;4.10;;;2.00;;
20229;SDS011;12195;55.790;37.572;2022-09-21T14:03:39;2.62;;;1.50;;
20229;SDS011;12195;55.790;37.572;2022-09-21T14:08:55;3.65;;;1.98;;
20229;SDS011;12195;55.790;37.572;2022-09-21T14:11:35;5.40;;;2.12;;
20229;SDS011;12195;55.790;37.572;2022-09-21T14:18:06;3.42;;;1.70;;
20229;SDS011;12195;55.790;37.572;2022-09-21T14:20:26;3.35;;;2.10;;
20229;SDS011;12195;55.790;37.572;2022-09-21T14:23:25;9.65;;;5.00;;
20229;SDS011;12195;55.790;37.572;2022-09-21T14:25:50;4.30;;;1.95;;
20229;SDS011;12195;55.790;37.572;2022-09-21T14:31:16;6.60;;;2.00;;
20229;SDS011;12195;55.790;37.572;2022-09-21T14:33:51;6.22;;;2.42;;
20229;SDS011;12195;55.790;37.572;2022-09-21T14:36:45;5.90;;;2.40;;
20229;SDS011;12195;55.790;37.572;2022-09-21T14:39:18;8.48;;;1.95;;
20229;SDS011;12195;55.790;37.572;2022-09-21T14:41:48;6.58;;;1.90;;
20229;SDS011;12195;55.790;37.572;2022-09-21T14:44:29;9.65;;;2.62;;
20229;SDS011;12195;55.790;37.572;2022-09-21T14:49:58;3.83;;;1.90;;
20229;SDS011;12195;55.790;37.572;2022-09-21T14:52:39;25.68;;;4.00;;
20229;SDS011;12195;55.790;37.572;2022-09-21T14:55:25;6.10;;;2.25;;
20229;SDS011;12195;55.790;37.572;2022-09-21T15:07:04;5.25;;;1.90;;
20229;SDS011;12195;55.790;37.572;2022-09-21T15:10:13;3.25;;;1.90;;
20229;SDS011;12195;55.790;37.572;2022-09-21T15:19:09;8.23;;;2.22;;
20229;SDS011;12195;55.790;37.572;2022-09-21T15:21:46;6.72;;;2.30;;
20229;SDS011;12195;55.790;37.572;2022-09-21T15:24:30;5.03;;;2.50;;
20229;SDS011;12195;55.790;37.572;2022-09-21T15:27:09;6.80;;;2.10;;
20229;SDS011;12195;55.790;37.572;2022-09-21T15:29:45;4.45;;;2.50;;
20229;SDS011;12195;55.790;37.572;2022-09-21T15:37:50;5.05;;;2.12;;
20229;SDS011;12195;55.790;37.572;2022-09-21T15:40:32;4.30;;;2.60;;
20229;SDS011;12195;55.790;37.572;2022-09-21T15:46:00;5.40;;;2.10;;
20229;SDS011;12195;55.790;37.572;2022-09-21T15:48:34;8.18;;;2.75;;
20229;SDS011;12195;55.790;37.572;2022-09-21T15:51:34;7.78;;;2.90;;
20229;SDS011;12195;55.790;37.572;2022-09-21T15:57:05;10.80;;;3.37;;
20229;SDS011;12195;55.790;37.572;2022-09-21T15:59:55;3.92;;;2.10;;
20229;SDS011;12195;55.790;37.572;2022-09-21T16:02:30;8.28;;;2.67;;
20229;SDS011;12195;55.790;37.572;2022-09-21T16:05:07;6.40;;;2.20;;
20229;SDS011;12195;55.790;37.572;2022-09-21T16:07:44;9.50;;;2.65;;
20229;SDS011;12195;55.790;37.572;2022-09-21T16:13:09;13.58;;;4.08;;
20229;SDS011;12195;55.790;37.572;2022-09-21T16:16:00;15.03;;;4.20;;
20229;SDS011;12195;55.790;37.572;2022-09-21T16:18:41;11.05;;;4.15;;
20229;SDS011;12195;55.790;37.572;2022-09-21T16:21:19;7.40;;;3.17;;
20229;SDS011;12195;55.790;37.572;2022-09-21T16:24:09;9.25;;;2.95;;
20229;SDS011;12195;55.790;37.572;2022-09-21T16:26:54;8.53;;;3.58;;
20229;SDS011;12195;55.790;37.572;2022-09-21T16:29:52;10.43;;;3.65;;
20229;SDS011;12195;55.790;37.572;2022-09-21T16:37:54;13.05;;;3.50;;
20229;SDS011;12195;55.790;37.572;2022-09-21T16:40:28;9.15;;;2.87;;
20229;SDS011;12195;55.790;37.572;2022-09-21T16:43:00;11.53;;;3.60;;
20229;SDS011;12195;55.790;37.572;2022-09-21T16:45:34;10.18;;;3.40;;
20229;SDS011;12195;55.790;37.572;2022-09-21T16:48:08;10.55;;;3.37;;
20229;SDS011;12195;55.790;37.572;2022-09-21T16:50:43;12.45;;;4.17;;
20229;SDS011;12195;55.790;37.572;2022-09-21T16:53:16;10.00;;;3.15;;
20229;SDS011;12195;55.790;37.572;2022-09-21T16:55:51;5.28;;;2.30;;
20229;SDS011;12195;55.790;37.572;2022-09-21T16:58:26;5.60;;;2.77;;
20229;SDS011;12195;55.790;37.572;2022-09-21T17:00:58;5.80;;;3.10;;
20229;SDS011;12195;55.790;37.572;2022-09-21T17:03:32;4.05;;;2.70;;
20229;SDS011;12195;55.790;37.572;2022-09-21T17:06:17;6.22;;;2.70;;
20229;SDS011;12195;55.790;37.572;2022-09-21T17:08:52;5.40;;;2.60;;
20229;SDS011;12195;55.790;37.572;2022-09-21T17:11:25;5.15;;;2.67;;
20229;SDS011;12195;55.790;37.572;2022-09-21T17:13:57;6.25;;;2.42;;
20229;SDS011;12195;55.790;37.572;2022-09-21T17:16:31;4.87;;;2.90;;
20229;SDS011;12195;55.790;37.572;2022-09-21T17:19:03;4.70;;;2.40;;
20229;SDS011;12195;55.790;37.572;2022-09-21T17:21:35;5.42;;;3.08;;
20229;SDS011;12195;55.790;37.572;2022-09-21T17:24:08;10.43;;;2.75;;
20229;SDS011;12195;55.790;37.572;2022-09-21T17:26:42;5.33;;;2.80;;
20229;SDS011;12195;55.790;37.572;2022-09-21T17:29:22;8.35;;;3.10;;
20229;SDS011;12195;55.790;37.572;2022-09-21T17:31:57;4.33;;;3.00;;
20229;SDS011;12195;55.790;37.572;2022-09-21T17:34:29;4.03;;;2.40;;
20229;SDS011;12195;55.790;37.572;2022-09-21T17:37:03;3.77;;;1.98;;
20229;SDS011;12195;55.790;37.572;2022-09-21T17:39:36;2.95;;;1.77;;
20229;SDS011;12195;55.790;37.572;2022-09-21T17:42:11;7.37;;;2.10;;
20229;SDS011;12195;55.790;37.572;2022-09-21T17:47:36;7.83;;;2.52;;
20229;SDS011;12195;55.790;37.572;2022-09-21T17:52:45;18.73;;;3.27;;
20229;SDS011;12195;55.790;37.572;2022-09-21T17:55:35;8.58;;;2.50;;
20229;SDS011;12195;55.790;37.572;2022-09-21T17:58:30;8.40;;;2.30;;
20229;SDS011;12195;55.790;37.572;2022-09-21T18:01:04;10.88;;;2.08;;
20229;SDS011;12195;55.790;37.572;2022-09-21T18:03:56;10.45;;;2.98;;
20229;SDS011;12195;55.790;37.572;2022-09-21T18:06:29;13.70;;;3.02;;
20229;SDS011;12195;55.790;37.572;2022-09-21T18:14:27;16.62;;;4.25;;
20229;SDS011;12195;55.790;37.572;2022-09-21T18:17:56;10.65;;;3.60;;
20229;SDS011;12195;55.790;37.572;2022-09-21T18:25:39;16.02;;;3.55;;
20229;SDS011;12195;55.790;37.572;2022-09-21T18:28:24;17.05;;;3.83;;
20229;SDS011;12195;55.790;37.572;2022-09-21T18:31:34;12.50;;;3.30;;
20229;SDS011;12195;55.790;37.572;2022-09-21T18:45:46;7.97;;;3.83;;
20229;SDS011;12195;55.790;37.572;2022-09-21T18:51:20;13.85;;;4.95;;
20229;SDS011;12195;55.790;37.572;2022-09-21T18:53:54;9.00;;;4.62;;
20229;SDS011;12195;55.790;37.572;2022-09-21T18:56:30;15.18;;;4.87;;
20229;SDS011;12195;55.790;37.572;2022-09-21T18:59:06;12.65;;;3.67;;
20229;SDS011;12195;55.790;37.572;2022-09-21T19:01:40;11.80;;;4.00;;
20229;SDS011;12195;55.790;37.572;2022-09-21T19:04:14;15.08;;;4.10;;
20229;SDS011;12195;55.790;37.572;2022-09-21T19:06:50;10.37;;;3.23;;
20229;SDS011;12195;55.790;37.572;2022-09-21T19:21:00;16.15;;;4.60;;
20229;SDS011;12195;55.790;37.572;2022-09-21T19:26:44;11.80;;;4.70;;
20229;SDS011;12195;55.790;37.572;2022-09-21T19:32:09;12.73;;;4.22;;